Time;durP1;ratioP1;P1;durP2;ratioP2;P2;SDS_P1;SDS_P2;PMS_P1;PMS_P2;Temp;Humidity;BMP_temperature;BMP_pressure;BME280_temperature;BME280_humidity;BME280_pressure;Samples;Min_cycle;Max_cycle;Signal;HPM_P1;HPM_P2
2022/01/18 00:00:46;;;;;;;8.38;2.40;;;;;;;;;;5048593;28;20063;-84
2022/01/18 00:03:12;;;;;;;15.67;2.77;;;;;;;;;;5039226;28;20034;-84
2022/01/18 00:05:39;;;;;;;8.43;2.50;;;;;;;;;;5046608;28;20038;-85
2022/01/18 00:08:05;;;;;;;14.87;3.00;;;;;;;;;;5041055;28;20064;-85
2022/01/18 00:10:32;;;;;;;26.93;2.30;;;;;;;;;;5046395;28;20114;-82
2022/01/18 00:15:39;;;;;;;9.97;3.23;;;;;;;;;;5040601;28;20044;-83
2022/01/18 00:18:08;;;;;;;19.23;3.07;;;;;;;;;;5048705;28;20275;-82
2022/01/18 00:23:06;;;;;;;8.33;2.40;;;;;;;;;;5041230;28;20037;-84
2022/01/18 00:25:35;;;;;;;11.73;1.97;;;;;;;;;;5040120;28;20037;-81
2022/01/18 00:28:01;;;;;;;9.37;1.93;;;;;;;;;;5042161;28;20053;-83
2022/01/18 00:33:19;;;;;;;13.13;2.90;;;;;;;;;;5036942;28;20129;-85
2022/01/18 00:35:47;;;;;;;12.33;2.50;;;;;;;;;;5045854;28;20025;-84
2022/01/18 00:38:43;;;;;;;11.60;2.30;;;;;;;;;;5047241;28;20383;-84
2022/01/18 00:41:10;;;;;;;15.30;2.17;;;;;;;;;;5040234;28;20041;-84
2022/01/18 00:43:36;;;;;;;20.50;2.37;;;;;;;;;;5039479;28;20067;-84
2022/01/18 00:46:02;;;;;;;9.37;2.23;;;;;;;;;;5046396;28;20124;-85
2022/01/18 00:48:32;;;;;;;12.97;1.70;;;;;;;;;;5046352;28;20049;-85
2022/01/18 00:50:59;;;;;;;8.13;2.80;;;;;;;;;;5042658;28;20099;-85
2022/01/18 00:53:26;;;;;;;14.10;2.40;;;;;;;;;;5045978;28;20091;-84
2022/01/18 00:56:07;;;;;;;8.83;2.00;;;;;;;;;;5072758;28;20040;-84
2022/01/18 00:58:33;;;;;;;13.37;2.17;;;;;;;;;;5047328;28;20040;-84
2022/01/18 01:00:59;;;;;;;9.30;2.77;;;;;;;;;;5045042;28;20038;-84
2022/01/18 01:03:25;;;;;;;9.20;1.80;;;;;;;;;;5039667;28;20025;-83
2022/01/18 01:05:52;;;;;;;8.30;1.87;;;;;;;;;;5047356;28;20029;-85
2022/01/18 01:08:18;;;;;;;5.90;2.53;;;;;;;;;;5041489;28;20040;-84
2022/01/18 01:10:44;;;;;;;9.90;2.93;;;;;;;;;;5033541;28;20072;-85
2022/01/18 01:13:11;;;;;;;6.90;2.17;;;;;;;;;;5042712;28;20029;-84
2022/01/18 01:15:57;;;;;;;16.90;2.70;;;;;;;;;;5052353;28;20035;-85
2022/01/18 01:18:59;;;;;;;7.73;1.63;;;;;;;;;;5039664;28;20032;-84
2022/01/18 01:35:28;;;;;;;9.43;2.03;;;;;;;;;;5036820;28;20025;-84
2022/01/18 01:43:28;;;;;;;7.63;2.20;;;;;;;;;;5034722;28;20575;-84
2022/01/18 01:45:55;;;;;;;14.83;2.07;;;;;;;;;;5041724;28;20044;-85
2022/01/18 01:48:22;;;;;;;13.37;3.00;;;;;;;;;;5046909;28;20053;-84
2022/01/18 01:50:55;;;;;;;14.90;2.40;;;;;;;;;;5043356;28;20034;-84
2022/01/18 01:53:22;;;;;;;10.30;1.70;;;;;;;;;;5055449;28;20076;-85
2022/01/18 01:55:48;;;;;;;13.77;3.63;;;;;;;;;;5043617;28;20060;-85
2022/01/18 01:58:14;;;;;;;8.17;3.30;;;;;;;;;;5040157;28;20418;-82
2022/01/18 02:00:45;;;;;;;9.80;1.77;;;;;;;;;;5038019;28;20125;-83
2022/01/18 02:03:11;;;;;;;4.43;1.93;;;;;;;;;;5045906;28;20046;-83
2022/01/18 02:05:37;;;;;;;11.83;2.70;;;;;;;;;;5039139;28;20079;-84
2022/01/18 02:08:07;;;;;;;15.03;1.63;;;;;;;;;;5044607;28;20037;-84
2022/01/18 02:10:33;;;;;;;6.47;2.10;;;;;;;;;;5045121;28;20438;-83
2022/01/18 02:12:59;;;;;;;4.63;2.13;;;;;;;;;;5036955;28;20030;-84
2022/01/18 02:15:25;;;;;;;10.67;3.00;;;;;;;;;;5044522;28;20033;-83
2022/01/18 02:23:23;;;;;;;12.53;2.00;;;;;;;;;;5036093;28;20241;-84
2022/01/18 02:25:49;;;;;;;12.13;2.57;;;;;;;;;;5045849;28;20025;-82
2022/01/18 02:28:16;;;;;;;17.60;2.83;;;;;;;;;;5046736;28;20034;-84
2022/01/18 02:30:42;;;;;;;10.80;3.47;;;;;;;;;;5043901;28;20186;-83
2022/01/18 02:33:08;;;;;;;17.37;2.47;;;;;;;;;;5036960;28;20041;-84
2022/01/18 02:35:35;;;;;;;5.87;2.10;;;;;;;;;;5035153;28;20033;-84
2022/01/18 02:38:01;;;;;;;11.30;2.13;;;;;;;;;;5045654;28;20048;-83
2022/01/18 02:40:27;;;;;;;17.97;3.13;;;;;;;;;;5047365;28;20088;-85
2022/01/18 02:42:59;;;;;;;6.27;2.00;;;;;;;;;;5048647;28;20033;-83
2022/01/18 02:45:26;;;;;;;9.45;2.38;;;;;;;;;;5047839;28;20060;-84
2022/01/18 02:47:52;;;;;;;16.03;4.60;;;;;;;;;;5048775;28;20028;-82
2022/01/18 02:50:19;;;;;;;15.17;3.17;;;;;;;;;;5040012;28;20188;-84
2022/01/18 02:52:45;;;;;;;19.17;2.37;;;;;;;;;;5049389;28;20028;-85
2022/01/18 02:55:11;;;;;;;7.43;2.97;;;;;;;;;;5048112;28;20029;-84
2022/01/18 02:57:52;;;;;;;9.07;2.77;;;;;;;;;;5047592;28;20030;-83
2022/01/18 03:00:27;;;;;;;10.83;2.67;;;;;;;;;;5042191;28;20120;-83
2022/01/18 03:03:15;;;;;;;13.67;2.40;;;;;;;;;;5049628;28;20044;-86
2022/01/18 03:05:42;;;;;;;22.13;3.53;;;;;;;;;;5046813;28;20120;-84
2022/01/18 03:08:10;;;;;;;10.57;2.47;;;;;;;;;;5044540;28;20040;-84
2022/01/18 03:10:36;;;;;;;12.60;2.40;;;;;;;;;;5044966;28;20359;-82
2022/01/18 03:13:02;;;;;;;13.47;3.07;;;;;;;;;;5047528;28;20036;-85
2022/01/18 03:15:28;;;;;;;13.23;3.23;;;;;;;;;;5037562;28;20061;-82
2022/01/18 03:17:54;;;;;;;16.43;3.70;;;;;;;;;;5055409;28;20117;-82
2022/01/18 03:20:22;;;;;;;6.37;2.47;;;;;;;;;;5047631;28;20033;-84
2022/01/18 03:22:50;;;;;;;13.23;2.47;;;;;;;;;;5047690;28;20030;-85
2022/01/18 03:25:39;;;;;;;21.17;3.20;;;;;;;;;;5044320;28;20030;-84
2022/01/18 03:28:07;;;;;;;14.27;2.50;;;;;;;;;;5047035;28;20046;-85
2022/01/18 03:30:38;;;;;;;6.40;2.20;;;;;;;;;;5071180;28;20513;-83
2022/01/18 03:33:05;;;;;;;11.13;4.30;;;;;;;;;;5048545;28;20025;-85
2022/01/18 03:35:31;;;;;;;10.43;2.77;;;;;;;;;;5047002;28;20550;-83
2022/01/18 03:37:57;;;;;;;12.73;3.47;;;;;;;;;;5040045;28;20045;-84
2022/01/18 03:40:24;;;;;;;8.83;2.43;;;;;;;;;;5045730;28;20107;-85
2022/01/18 03:42:51;;;;;;;12.87;3.43;;;;;;;;;;5042870;28;20262;-84
2022/01/18 03:45:19;;;;;;;18.60;4.23;;;;;;;;;;5048250;28;20097;-84
2022/01/18 03:47:45;;;;;;;19.30;3.40;;;;;;;;;;5046175;28;20038;-84
2022/01/18 03:50:12;;;;;;;11.10;3.27;;;;;;;;;;5046165;28;20109;-83
2022/01/18 03:52:39;;;;;;;10.73;3.60;;;;;;;;;;5048502;28;20125;-84
2022/01/18 03:55:06;;;;;;;21.20;3.57;;;;;;;;;;5046973;28;20029;-85
2022/01/18 03:57:32;;;;;;;5.47;2.53;;;;;;;;;;5055933;28;20026;-84
2022/01/18 03:59:58;;;;;;;14.17;4.30;;;;;;;;;;5045840;28;20025;-83
2022/01/18 04:02:24;;;;;;;13.47;3.90;;;;;;;;;;5048295;28;20037;-84
2022/01/18 04:04:50;;;;;;;20.13;5.03;;;;;;;;;;5049592;28;20029;-84
2022/01/18 04:07:16;;;;;;;21.10;3.70;;;;;;;;;;5045935;28;20030;-84
2022/01/18 04:09:43;;;;;;;20.13;4.77;;;;;;;;;;5047306;28;20521;-85
2022/01/18 04:12:09;;;;;;;26.03;4.53;;;;;;;;;;5053166;28;20030;-85
2022/01/18 04:14:35;;;;;;;15.97;3.60;;;;;;;;;;5048718;28;20034;-85
2022/01/18 04:27:27;;;;;;;15.83;3.73;;;;;;;;;;5039116;28;20155;-80
2022/01/18 04:29:53;;;;;;;23.33;4.83;;;;;;;;;;5047390;28;20037;-82
2022/01/18 04:32:20;;;;;;;9.30;4.37;;;;;;;;;;5046597;28;20048;-83
2022/01/18 04:34:47;;;;;;;14.93;4.10;;;;;;;;;;5040668;28;20055;-81
2022/01/18 04:37:13;;;;;;;24.90;5.60;;;;;;;;;;5038529;28;20049;-82
2022/01/18 04:39:42;;;;;;;10.63;3.73;;;;;;;;;;5040193;28;20116;-82
2022/01/18 04:42:17;;;;;;;12.33;4.30;;;;;;;;;;5046450;28;20041;-80
2022/01/18 04:50:13;;;;;;;10.47;3.50;;;;;;;;;;5038977;28;20065;-81
2022/01/18 04:52:39;;;;;;;11.10;4.27;;;;;;;;;;5049038;28;20021;-82
2022/01/18 04:55:06;;;;;;;19.13;5.17;;;;;;;;;;5044773;28;20034;-83
2022/01/18 05:00:17;;;;;;;18.50;5.50;;;;;;;;;;5042348;28;20043;-84
2022/01/18 05:02:43;;;;;;;16.47;5.43;;;;;;;;;;5045594;28;20044;-83
2022/01/18 05:05:11;;;;;;;12.00;3.40;;;;;;;;;;5051681;28;20038;-83
2022/01/18 05:07:38;;;;;;;16.70;4.60;;;;;;;;;;5056507;28;20037;-83
2022/01/18 05:10:04;;;;;;;20.00;6.23;;;;;;;;;;5039983;28;20040;-81
2022/01/18 05:12:45;;;;;;;11.87;4.60;;;;;;;;;;5037581;28;20034;-82
2022/01/18 05:15:40;;;;;;;12.83;5.10;;;;;;;;;;5046908;28;20039;-81
2022/01/18 05:23:09;;;;;;;18.07;3.60;;;;;;;;;;5033493;28;20034;-83
2022/01/18 05:25:35;;;;;;;14.83;3.80;;;;;;;;;;5048675;28;20029;-84
2022/01/18 05:28:04;;;;;;;16.40;3.70;;;;;;;;;;5048492;28;20032;-83
2022/01/18 05:30:32;;;;;;;17.07;5.27;;;;;;;;;;5046708;28;20029;-83
2022/01/18 05:32:59;;;;;;;16.10;4.77;;;;;;;;;;5047250;28;20029;-81
2022/01/18 05:35:25;;;;;;;12.73;4.20;;;;;;;;;;5046323;28;20033;-82
2022/01/18 05:37:52;;;;;;;11.47;4.57;;;;;;;;;;5036075;28;20030;-83
2022/01/18 05:40:19;;;;;;;17.70;4.70;;;;;;;;;;5046993;28;20033;-83
2022/01/18 05:42:47;;;;;;;17.70;3.90;;;;;;;;;;5047215;28;20093;-83
2022/01/18 05:45:14;;;;;;;22.40;4.13;;;;;;;;;;5047366;28;20033;-84
2022/01/18 05:47:41;;;;;;;23.33;4.47;;;;;;;;;;5052851;28;20583;-84
2022/01/18 05:50:08;;;;;;;19.97;5.90;;;;;;;;;;5044344;28;20056;-82
2022/01/18 05:52:34;;;;;;;12.50;4.17;;;;;;;;;;5044709;28;20121;-84
2022/01/18 05:55:00;;;;;;;13.63;4.43;;;;;;;;;;5037078;28;20036;-82
2022/01/18 05:57:26;;;;;;;27.40;6.53;;;;;;;;;;5039861;28;20044;-84
2022/01/18 06:00:00;;;;;;;26.13;5.93;;;;;;;;;;5037572;28;20092;-84
2022/01/18 06:07:40;;;;;;;13.93;4.27;;;;;;;;;;5036826;28;20040;-83
2022/01/18 06:10:06;;;;;;;22.50;5.43;;;;;;;;;;5044171;28;20061;-84
2022/01/18 06:12:32;;;;;;;16.00;4.60;;;;;;;;;;5046679;28;20033;-84
2022/01/18 06:14:59;;;;;;;22.97;5.00;;;;;;;;;;5044668;28;20033;-84
2022/01/18 06:17:25;;;;;;;23.87;4.40;;;;;;;;;;5039068;28;20465;-81
2022/01/18 06:19:51;;;;;;;17.17;4.97;;;;;;;;;;5045104;28;20032;-83
2022/01/18 06:22:17;;;;;;;21.57;5.27;;;;;;;;;;5047127;28;20069;-83
2022/01/18 06:24:43;;;;;;;13.90;4.23;;;;;;;;;;5055065;28;20037;-82
2022/01/18 06:27:10;;;;;;;15.57;5.27;;;;;;;;;;5040825;28;20041;-84
2022/01/18 06:29:36;;;;;;;29.43;6.77;;;;;;;;;;5042398;28;20029;-84
2022/01/18 06:32:03;;;;;;;21.40;5.00;;;;;;;;;;5044696;28;20100;-84
2022/01/18 06:34:29;;;;;;;14.97;4.70;;;;;;;;;;5045300;28;20116;-84
2022/01/18 06:36:55;;;;;;;13.20;5.27;;;;;;;;;;5043993;28;20072;-83
2022/01/18 06:39:21;;;;;;;12.87;4.07;;;;;;;;;;5068882;28;20089;-83
2022/01/18 06:41:47;;;;;;;14.93;4.87;;;;;;;;;;5044039;28;20029;-83
2022/01/18 06:44:14;;;;;;;13.23;5.00;;;;;;;;;;5050793;28;20098;-83
2022/01/18 06:46:40;;;;;;;24.80;5.70;;;;;;;;;;5066349;28;20129;-83
2022/01/18 06:49:07;;;;;;;11.10;5.17;;;;;;;;;;5037881;28;20052;-83
2022/01/18 06:51:33;;;;;;;12.03;5.03;;;;;;;;;;5036592;28;20038;-84
2022/01/18 06:53:59;;;;;;;17.43;4.40;;;;;;;;;;5046251;28;20044;-84
2022/01/18 06:56:26;;;;;;;12.07;4.40;;;;;;;;;;5053310;28;20029;-84
2022/01/18 06:58:53;;;;;;;16.57;3.90;;;;;;;;;;5039865;28;20060;-82
2022/01/18 07:01:19;;;;;;;17.13;5.20;;;;;;;;;;5043482;28;20026;-84
2022/01/18 07:03:48;;;;;;;22.67;5.77;;;;;;;;;;5041636;28;20053;-82
2022/01/18 07:06:15;;;;;;;12.77;4.70;;;;;;;;;;5046879;28;20033;-83
2022/01/18 07:08:41;;;;;;;11.90;3.67;;;;;;;;;;5052448;28;20497;-84
2022/01/18 07:11:07;;;;;;;8.07;4.17;;;;;;;;;;5047274;28;20026;-83
2022/01/18 07:13:34;;;;;;;19.73;5.77;;;;;;;;;;5045141;28;20041;-84
2022/01/18 07:16:00;;;;;;;11.27;4.67;;;;;;;;;;5033806;28;20026;-83
2022/01/18 07:18:27;;;;;;;20.63;5.67;;;;;;;;;;5042377;28;20029;-83
2022/01/18 07:20:53;;;;;;;13.23;5.03;;;;;;;;;;5044632;28;20038;-83
2022/01/18 07:23:20;;;;;;;10.03;3.93;;;;;;;;;;5051948;28;20038;-81
2022/01/18 07:25:48;;;;;;;8.80;4.20;;;;;;;;;;5045733;28;20029;-82
2022/01/18 07:28:15;;;;;;;19.30;4.27;;;;;;;;;;5048032;28;20120;-82
2022/01/18 07:30:41;;;;;;;13.47;4.33;;;;;;;;;;5047267;28;20049;-82
2022/01/18 07:33:14;;;;;;;16.50;5.27;;;;;;;;;;5037320;28;20072;-80
2022/01/18 07:35:41;;;;;;;11.27;5.50;;;;;;;;;;5048429;28;20048;-83
2022/01/18 07:38:09;;;;;;;10.03;3.80;;;;;;;;;;5047200;28;20049;-83
2022/01/18 07:40:35;;;;;;;10.87;4.03;;;;;;;;;;5046392;28;20037;-82
2022/01/18 07:43:02;;;;;;;11.47;4.07;;;;;;;;;;5045586;28;20392;-82
2022/01/18 07:45:29;;;;;;;15.93;5.10;;;;;;;;;;5048006;28;20033;-84
2022/01/18 07:47:55;;;;;;;18.57;4.60;;;;;;;;;;5039510;28;20132;-84
2022/01/18 07:50:21;;;;;;;18.03;5.23;;;;;;;;;;5048040;28;20056;-85
2022/01/18 07:52:47;;;;;;;11.87;5.33;;;;;;;;;;5046260;28;20022;-84
2022/01/18 07:55:14;;;;;;;13.77;5.17;;;;;;;;;;5047299;28;20132;-82
2022/01/18 07:57:43;;;;;;;8.43;3.90;;;;;;;;;;5042054;28;20022;-84
2022/01/18 08:00:14;;;;;;;8.77;3.70;;;;;;;;;;5045729;28;20036;-82
2022/01/18 08:02:40;;;;;;;10.40;4.50;;;;;;;;;;5054087;28;20030;-85
2022/01/18 08:05:07;;;;;;;13.73;4.10;;;;;;;;;;5052678;28;20562;-81
2022/01/18 08:07:34;;;;;;;8.80;3.60;;;;;;;;;;5046005;28;20034;-80
2022/01/18 08:10:00;;;;;;;19.77;5.00;;;;;;;;;;5048268;28;20029;-83
2022/01/18 08:12:27;;;;;;;12.77;4.57;;;;;;;;;;5048118;28;20041;-83
2022/01/18 08:15:01;;;;;;;12.37;4.37;;;;;;;;;;5046353;28;20030;-84
2022/01/18 08:17:27;;;;;;;17.73;4.90;;;;;;;;;;5046748;28;20133;-84
2022/01/18 08:19:54;;;;;;;14.17;4.07;;;;;;;;;;5047571;28;20068;-84
2022/01/18 08:22:20;;;;;;;8.20;2.67;;;;;;;;;;5048306;28;20034;-83
2022/01/18 08:24:46;;;;;;;16.57;4.27;;;;;;;;;;5045183;28;20102;-84
2022/01/18 08:27:12;;;;;;;18.10;4.80;;;;;;;;;;5037678;28;20037;-83
2022/01/18 08:29:38;;;;;;;12.77;3.93;;;;;;;;;;5048519;28;20034;-82
2022/01/18 08:32:05;;;;;;;13.90;4.97;;;;;;;;;;5038970;28;20029;-83
2022/01/18 08:34:31;;;;;;;22.83;6.87;;;;;;;;;;5051074;28;20550;-81
2022/01/18 08:36:57;;;;;;;16.50;4.30;;;;;;;;;;5047974;28;20034;-82
2022/01/18 08:39:23;;;;;;;21.73;4.30;;;;;;;;;;5048150;28;21599;-83
2022/01/18 08:41:50;;;;;;;21.43;5.30;;;;;;;;;;5046809;28;20036;-84
2022/01/18 08:44:16;;;;;;;17.00;4.50;;;;;;;;;;5042881;28;20139;-83
2022/01/18 08:46:43;;;;;;;14.70;3.87;;;;;;;;;;5047614;28;20037;-83
2022/01/18 08:49:09;;;;;;;18.20;4.03;;;;;;;;;;5047476;28;20029;-83
2022/01/18 08:51:35;;;;;;;6.80;3.40;;;;;;;;;;5038415;28;20029;-84
2022/01/18 08:54:02;;;;;;;9.97;3.23;;;;;;;;;;5038017;28;20061;-83
2022/01/18 08:56:29;;;;;;;9.47;4.27;;;;;;;;;;5044410;28;20088;-85
2022/01/18 08:58:56;;;;;;;17.87;5.17;;;;;;;;;;5055424;28;20397;-83
2022/01/18 09:01:22;;;;;;;13.33;3.97;;;;;;;;;;5047004;28;20033;-84
2022/01/18 09:03:49;;;;;;;13.40;4.13;;;;;;;;;;5046654;28;20073;-81
2022/01/18 09:06:17;;;;;;;12.57;4.30;;;;;;;;;;5047684;28;20033;-84
2022/01/18 09:08:43;;;;;;;8.97;3.90;;;;;;;;;;5047157;28;20028;-83
2022/01/18 09:11:11;;;;;;;16.57;5.20;;;;;;;;;;5044176;28;20029;-83
2022/01/18 09:13:37;;;;;;;13.30;4.27;;;;;;;;;;5040654;28;20033;-83
2022/01/18 09:16:06;;;;;;;13.60;4.73;;;;;;;;;;5052902;28;20093;-83
2022/01/18 09:18:32;;;;;;;9.30;4.60;;;;;;;;;;5042354;28;20025;-84
2022/01/18 09:20:59;;;;;;;8.17;3.33;;;;;;;;;;5046300;28;20049;-83
2022/01/18 09:23:26;;;;;;;16.63;5.70;;;;;;;;;;5049610;28;20136;-83
2022/01/18 09:25:52;;;;;;;14.53;3.40;;;;;;;;;;5055972;28;20101;-81
2022/01/18 09:28:18;;;;;;;16.93;5.70;;;;;;;;;;5038768;28;20034;-82
2022/01/18 09:30:44;;;;;;;17.27;4.67;;;;;;;;;;5038832;28;20061;-82
2022/01/18 09:33:12;;;;;;;10.23;3.60;;;;;;;;;;5058091;28;20045;-84
2022/01/18 09:35:39;;;;;;;16.73;4.80;;;;;;;;;;5040371;28;20698;-84
2022/01/18 09:38:06;;;;;;;29.70;5.07;;;;;;;;;;5043131;28;20029;-82
2022/01/18 09:40:38;;;;;;;18.17;4.13;;;;;;;;;;5046514;28;20257;-82
2022/01/18 09:43:10;;;;;;;18.23;3.67;;;;;;;;;;5044561;28;20029;-84
2022/01/18 09:45:36;;;;;;;11.13;3.60;;;;;;;;;;5044775;28;20041;-83
2022/01/18 09:48:04;;;;;;;7.03;3.50;;;;;;;;;;5074258;28;20040;-84
2022/01/18 09:50:33;;;;;;;19.00;4.07;;;;;;;;;;5074041;28;20093;-83
2022/01/18 09:53:00;;;;;;;10.93;3.30;;;;;;;;;;5035396;28;20024;-84
2022/01/18 09:55:28;;;;;;;10.63;3.57;;;;;;;;;;5053256;28;20096;-83
2022/01/18 09:57:55;;;;;;;17.57;3.77;;;;;;;;;;5069609;28;21636;-83
2022/01/18 10:00:22;;;;;;;15.23;4.20;;;;;;;;;;5057818;28;21629;-84
2022/01/18 10:02:48;;;;;;;6.90;3.83;;;;;;;;;;5069619;28;20513;-83
2022/01/18 10:05:21;;;;;;;10.40;3.73;;;;;;;;;;5035127;28;20033;-82
2022/01/18 10:07:58;;;;;;;15.20;4.10;;;;;;;;;;5073695;28;20037;-83
2022/01/18 10:10:39;;;;;;;20.70;4.67;;;;;;;;;;5067233;28;20025;-84
2022/01/18 10:13:06;;;;;;;13.03;4.33;;;;;;;;;;5070922;28;20071;-82
2022/01/18 10:15:32;;;;;;;15.07;4.77;;;;;;;;;;5037413;28;20068;-83
2022/01/18 10:18:06;;;;;;;12.93;4.07;;;;;;;;;;5044386;28;20037;-83
2022/01/18 10:20:33;;;;;;;18.07;5.10;;;;;;;;;;5044714;28;20050;-82
2022/01/18 10:23:00;;;;;;;11.97;4.33;;;;;;;;;;5033425;28;20658;-84
2022/01/18 10:25:32;;;;;;;12.50;4.23;;;;;;;;;;5052206;28;20390;-83
2022/01/18 10:27:58;;;;;;;11.23;3.28;;;;;;;;;;5042229;28;20030;-83
2022/01/18 10:30:35;;;;;;;16.43;4.60;;;;;;;;;;5054159;28;20033;-81
2022/01/18 10:33:08;;;;;;;12.93;3.87;;;;;;;;;;5042555;28;21683;-82
2022/01/18 10:35:34;;;;;;;16.45;4.70;;;;;;;;;;5047404;28;20053;-82
2022/01/18 10:38:00;;;;;;;12.60;4.77;;;;;;;;;;5057621;28;20059;-83
2022/01/18 10:40:26;;;;;;;10.63;3.93;;;;;;;;;;5045397;28;20166;-83
2022/01/18 10:42:54;;;;;;;12.57;4.60;;;;;;;;;;5043687;28;20114;-82
2022/01/18 10:45:30;;;;;;;7.73;4.07;;;;;;;;;;5046611;28;20022;-83
2022/01/18 10:48:09;;;;;;;19.53;5.23;;;;;;;;;;5057635;28;20024;-82
2022/01/18 10:50:37;;;;;;;12.77;6.20;;;;;;;;;;5053866;28;20071;-82
2022/01/18 10:53:20;;;;;;;9.20;5.30;;;;;;;;;;5043977;28;20243;-82
2022/01/18 10:55:47;;;;;;;13.07;5.63;;;;;;;;;;5043370;28;20026;-82
2022/01/18 10:58:18;;;;;;;14.17;5.43;;;;;;;;;;5040013;28;20026;-82
2022/01/18 11:00:44;;;;;;;17.07;5.73;;;;;;;;;;5073866;28;20033;-82
2022/01/18 11:03:11;;;;;;;16.83;6.50;;;;;;;;;;5050031;28;20040;-80
2022/01/18 11:05:38;;;;;;;14.97;5.70;;;;;;;;;;5050821;28;20096;-82
2022/01/18 11:08:06;;;;;;;10.80;4.80;;;;;;;;;;5051027;28;20022;-77
2022/01/18 11:10:33;;;;;;;14.37;6.87;;;;;;;;;;5044881;28;20091;-82
2022/01/18 11:13:21;;;;;;;17.27;5.87;;;;;;;;;;5049395;28;20344;-83
2022/01/18 11:15:50;;;;;;;10.47;4.97;;;;;;;;;;5047727;28;20030;-80
2022/01/18 11:18:25;;;;;;;16.13;6.57;;;;;;;;;;5051625;28;20032;-82
2022/01/18 11:20:51;;;;;;;14.10;6.27;;;;;;;;;;5049200;28;20033;-83
2022/01/18 11:23:18;;;;;;;19.20;5.57;;;;;;;;;;5048300;28;20041;-80
2022/01/18 11:25:45;;;;;;;11.57;6.37;;;;;;;;;;5060605;28;20045;-80
2022/01/18 11:28:12;;;;;;;15.00;7.40;;;;;;;;;;5058782;28;20041;-81
2022/01/18 11:30:40;;;;;;;19.07;7.03;;;;;;;;;;5047299;28;20037;-83
2022/01/18 11:33:07;;;;;;;18.10;7.03;;;;;;;;;;5049270;28;20423;-82
2022/01/18 11:35:56;;;;;;;14.67;6.07;;;;;;;;;;5039330;28;20030;-83
2022/01/18 11:38:37;;;;;;;16.73;6.83;;;;;;;;;;5050092;28;20072;-82
2022/01/18 11:41:04;;;;;;;13.17;6.57;;;;;;;;;;5049611;28;20064;-81
2022/01/18 11:43:34;;;;;;;15.60;5.80;;;;;;;;;;5040587;28;20130;-81
2022/01/18 11:46:00;;;;;;;21.60;7.70;;;;;;;;;;5048068;28;20033;-81
2022/01/18 11:48:26;;;;;;;18.73;7.70;;;;;;;;;;5044720;28;20037;-83
2022/01/18 11:51:01;;;;;;;8.30;5.33;;;;;;;;;;5040203;28;20061;-81
2022/01/18 11:53:39;;;;;;;20.67;7.97;;;;;;;;;;5055900;28;20032;-80
2022/01/18 11:56:07;;;;;;;21.13;9.83;;;;;;;;;;5045628;28;20034;-82
2022/01/18 11:58:33;;;;;;;11.03;6.30;;;;;;;;;;5044768;28;20047;-81
2022/01/18 12:01:01;;;;;;;17.70;8.00;;;;;;;;;;5048807;28;20041;-83
2022/01/18 12:03:28;;;;;;;18.63;7.90;;;;;;;;;;5045719;28;20702;-82
2022/01/18 12:05:55;;;;;;;23.63;8.83;;;;;;;;;;5046693;28;20030;-83
2022/01/18 12:08:40;;;;;;;16.80;7.60;;;;;;;;;;5046829;28;20041;-82
2022/01/18 12:11:10;;;;;;;19.60;8.17;;;;;;;;;;5047765;28;20048;-82
2022/01/18 12:13:37;;;;;;;17.17;7.90;;;;;;;;;;5046128;28;20036;-82
2022/01/18 12:16:09;;;;;;;14.77;7.60;;;;;;;;;;5041208;28;20335;-81
2022/01/18 12:18:35;;;;;;;14.30;8.13;;;;;;;;;;5047015;28;20030;-80
2022/01/18 12:21:03;;;;;;;23.07;9.60;;;;;;;;;;5044910;28;20033;-83
2022/01/18 12:23:40;;;;;;;22.83;8.73;;;;;;;;;;5045400;28;20033;-82
2022/01/18 12:26:21;;;;;;;13.73;8.00;;;;;;;;;;5039467;28;20033;-83
2022/01/18 12:34:30;;;;;;;21.00;9.13;;;;;;;;;;5037823;28;20033;-83
2022/01/18 12:36:56;;;;;;;17.50;8.43;;;;;;;;;;5046490;28;20093;-82
2022/01/18 12:39:23;;;;;;;15.83;8.27;;;;;;;;;;5039643;28;20038;-82
2022/01/18 12:41:52;;;;;;;14.43;7.77;;;;;;;;;;5046174;28;20030;-83
2022/01/18 12:44:21;;;;;;;16.07;8.37;;;;;;;;;;5040219;28;20030;-83
2022/01/18 12:46:58;;;;;;;14.50;6.57;;;;;;;;;;5037023;28;20089;-82
2022/01/18 12:49:30;;;;;;;14.93;7.07;;;;;;;;;;5046922;28;20038;-82
2022/01/18 12:51:57;;;;;;;14.45;6.03;;;;;;;;;;5039741;28;20038;-83
2022/01/18 12:54:36;;;;;;;10.70;6.83;;;;;;;;;;5045832;28;20038;-80
2022/01/18 12:57:23;;;;;;;19.73;6.40;;;;;;;;;;5045168;28;20036;-82
2022/01/18 13:00:03;;;;;;;15.57;5.80;;;;;;;;;;5045079;28;20029;-83
2022/01/18 13:02:29;;;;;;;13.87;6.40;;;;;;;;;;5049159;28;20041;-83
2022/01/18 13:04:58;;;;;;;9.77;5.47;;;;;;;;;;5045069;28;20029;-83
2022/01/18 13:07:24;;;;;;;19.07;6.60;;;;;;;;;;5070412;28;20156;-84
2022/01/18 13:10:01;;;;;;;19.87;7.57;;;;;;;;;;5045244;28;20038;-82
2022/01/18 13:12:31;;;;;;;11.13;6.73;;;;;;;;;;5047168;28;20031;-84
2022/01/18 13:14:59;;;;;;;10.40;5.77;;;;;;;;;;5047400;28;20036;-83
2022/01/18 13:23:50;;;;;;;8.93;5.40;;;;;;;;;;5035070;28;20068;-82
2022/01/18 13:26:28;;;;;;;14.13;7.53;;;;;;;;;;5045732;28;20040;-80
2022/01/18 13:28:54;;;;;;;16.93;6.50;;;;;;;;;;5039060;28;20047;-83
2022/01/18 13:31:22;;;;;;;16.07;6.50;;;;;;;;;;5054082;28;20063;-83
2022/01/18 13:34:10;;;;;;;16.50;6.03;;;;;;;;;;5045170;28;20047;-82
2022/01/18 13:36:47;;;;;;;19.10;7.70;;;;;;;;;;5035222;28;20274;-83
2022/01/18 13:39:21;;;;;;;14.53;7.20;;;;;;;;;;5044141;28;20042;-81
2022/01/18 13:41:48;;;;;;;15.27;6.30;;;;;;;;;;5037197;28;20189;-83
2022/01/18 13:44:14;;;;;;;12.20;6.93;;;;;;;;;;5033988;28;20033;-82
2022/01/18 13:46:40;;;;;;;12.70;6.60;;;;;;;;;;5045336;28;20123;-81
2022/01/18 13:49:07;;;;;;;22.33;7.33;;;;;;;;;;5040914;28;20097;-82
2022/01/18 13:51:33;;;;;;;19.20;7.70;;;;;;;;;;5037111;28;20696;-83
2022/01/18 13:54:03;;;;;;;13.17;7.27;;;;;;;;;;5046964;28;20029;-81
2022/01/18 13:56:29;;;;;;;14.57;6.67;;;;;;;;;;5039355;28;20077;-82
2022/01/18 13:59:05;;;;;;;24.03;8.20;;;;;;;;;;5073655;28;20029;-83
2022/01/18 14:01:36;;;;;;;14.70;7.50;;;;;;;;;;5038021;28;20033;-83
2022/01/18 14:04:16;;;;;;;14.00;6.17;;;;;;;;;;5047390;28;20095;-81
2022/01/18 14:06:43;;;;;;;14.63;6.27;;;;;;;;;;5045153;28;20064;-82
2022/01/18 14:09:10;;;;;;;12.77;6.83;;;;;;;;;;5046109;28;20038;-81
2022/01/18 14:11:36;;;;;;;14.77;6.13;;;;;;;;;;5041068;28;20029;-80
2022/01/18 14:14:18;;;;;;;18.37;9.63;;;;;;;;;;5055164;28;20029;-82
2022/01/18 14:16:53;;;;;;;19.40;7.70;;;;;;;;;;5046557;28;20041;-84
2022/01/18 14:19:27;;;;;;;14.30;7.07;;;;;;;;;;5046585;28;20021;-83
2022/01/18 14:21:54;;;;;;;11.53;6.30;;;;;;;;;;5038865;28;20038;-82
2022/01/18 14:24:21;;;;;;;18.40;7.93;;;;;;;;;;5045237;28;20040;-83
2022/01/18 14:26:54;;;;;;;18.00;7.37;;;;;;;;;;5045849;28;20047;-81
2022/01/18 14:29:21;;;;;;;15.70;6.40;;;;;;;;;;5036339;28;21344;-81
2022/01/18 14:32:04;;;;;;;18.93;7.83;;;;;;;;;;5053998;28;20044;-83
2022/01/18 14:34:30;;;;;;;12.90;6.95;;;;;;;;;;5074165;28;20615;-83
2022/01/18 14:36:56;;;;;;;22.47;7.27;;;;;;;;;;5051024;28;20036;-83
2022/01/18 14:39:23;;;;;;;15.73;8.60;;;;;;;;;;5043770;28;20471;-81
2022/01/18 14:41:56;;;;;;;15.60;8.27;;;;;;;;;;5045665;28;20037;-81
2022/01/18 14:44:35;;;;;;;15.47;7.20;;;;;;;;;;5062531;28;20052;-82
2022/01/18 14:49:47;;;;;;;17.17;6.97;;;;;;;;;;5044659;28;20088;-81
2022/01/18 14:52:13;;;;;;;14.50;7.13;;;;;;;;;;5044622;28;20029;-81
2022/01/18 14:54:39;;;;;;;14.57;7.73;;;;;;;;;;5051346;28;20044;-80
2022/01/18 14:57:05;;;;;;;14.40;7.10;;;;;;;;;;5054590;28;20093;-84
2022/01/18 14:59:31;;;;;;;19.07;8.47;;;;;;;;;;5052919;28;20060;-82
2022/01/18 15:01:57;;;;;;;21.27;8.33;;;;;;;;;;5052970;28;20025;-84
2022/01/18 15:04:29;;;;;;;20.20;9.00;;;;;;;;;;5051991;28;20036;-83
2022/01/18 15:06:55;;;;;;;18.40;7.20;;;;;;;;;;5053050;28;20682;-83
2022/01/18 15:09:21;;;;;;;27.33;8.17;;;;;;;;;;5051541;28;20029;-82
2022/01/18 15:11:47;;;;;;;16.27;7.80;;;;;;;;;;5052201;28;20096;-79
2022/01/18 15:14:15;;;;;;;15.70;6.77;;;;;;;;;;5048245;28;20044;-83
2022/01/18 15:16:42;;;;;;;11.83;5.87;;;;;;;;;;5060936;28;20097;-80
2022/01/18 15:19:09;;;;;;;12.00;6.70;;;;;;;;;;5052212;28;20047;-83
2022/01/18 15:21:35;;;;;;;17.93;6.83;;;;;;;;;;5043828;28;20041;-83
2022/01/18 15:24:01;;;;;;;18.17;7.40;;;;;;;;;;5050444;28;20699;-83
2022/01/18 15:26:27;;;;;;;15.10;7.03;;;;;;;;;;5052956;28;20033;-80
2022/01/18 15:28:57;;;;;;;13.57;7.87;;;;;;;;;;5042649;28;20053;-81
2022/01/18 15:31:23;;;;;;;19.23;7.97;;;;;;;;;;5079366;28;20043;-82
2022/01/18 15:33:49;;;;;;;21.77;8.23;;;;;;;;;;5052986;28;20644;-83
2022/01/18 15:36:15;;;;;;;19.53;8.50;;;;;;;;;;5051838;28;20063;-83
2022/01/18 15:38:41;;;;;;;15.23;7.87;;;;;;;;;;5041778;28;20039;-83
2022/01/18 15:41:07;;;;;;;19.50;8.10;;;;;;;;;;5048634;28;20025;-80
2022/01/18 15:43:33;;;;;;;22.60;12.00;;;;;;;;;;5045022;28;20041;-82
2022/01/18 15:46:02;;;;;;;18.47;9.30;;;;;;;;;;5057173;28;20124;-83
2022/01/18 15:48:29;;;;;;;12.17;6.93;;;;;;;;;;5053934;28;20029;-81
2022/01/18 15:50:56;;;;;;;13.67;7.17;;;;;;;;;;5047639;28;20108;-83
2022/01/18 15:53:24;;;;;;;23.13;8.87;;;;;;;;;;5049387;28;20137;-84
2022/01/18 15:55:50;;;;;;;19.57;7.90;;;;;;;;;;5042284;28;20029;-82